Time;durP1;ratioP1;P1;durP2;ratioP2;P2;SDS_P1;SDS_P2;PMS_P1;PMS_P2;Temp;Humidity;BMP_temperature;BMP_pressure;BME280_temperature;BME280_humidity;BME280_pressure;Samples;Min_cycle;Max_cycle;Signal;HPM_P1;HPM_P2
2022/09/16 00:02:15;;;;;;;7.80;4.82;;;;;;;20.57;60.30;92778.03;5002850;28;20400;-86
2022/09/16 00:04:40;;;;;;;6.55;4.82;;;;;;;20.56;60.63;92771.09;4983476;28;20722;-86
2022/09/16 00:07:06;;;;;;;8.32;5.38;;;;;;;20.58;60.86;92778.75;4991781;28;20045;-86
2022/09/16 00:09:31;;;;;;;7.72;4.90;;;;;;;20.58;60.59;92776.00;4992622;28;20029;-85
2022/09/16 00:11:56;;;;;;;6.32;5.18;;;;;;;20.57;60.63;92774.56;4994936;28;20076;-86
2022/09/16 00:14:22;;;;;;;6.97;4.72;;;;;;;20.58;60.02;92768.50;4992530;28;20266;-86
2022/09/16 00:16:47;;;;;;;7.70;5.15;;;;;;;20.59;60.05;92769.97;5019382;28;20526;-87
2022/09/16 00:19:13;;;;;;;5.38;4.47;;;;;;;20.58;60.14;92752.03;4993777;28;20045;-85
2022/09/16 00:21:38;;;;;;;6.80;4.90;;;;;;;20.59;60.13;92744.53;4980985;28;20049;-85
2022/09/16 00:24:04;;;;;;;6.80;4.82;;;;;;;20.59;60.00;92750.75;5007619;28;20455;-86
2022/09/16 00:26:29;;;;;;;5.43;4.05;;;;;;;20.58;60.19;92743.78;5009474;28;20139;-86
2022/09/16 00:28:55;;;;;;;5.60;4.35;;;;;;;20.59;60.01;92748.00;4978183;28;20045;-86
2022/09/16 00:31:20;;;;;;;6.97;5.00;;;;;;;20.59;59.95;92761.00;4984193;28;20045;-86
2022/09/16 00:33:46;;;;;;;7.15;4.90;;;;;;;20.58;59.87;92762.28;4994650;28;20056;-86
2022/09/16 00:36:13;;;;;;;5.88;4.35;;;;;;;20.58;59.98;92760.28;4997284;28;20492;-86
2022/09/16 00:38:38;;;;;;;4.75;4.25;;;;;;;20.57;60.16;92756.06;4986253;28;20041;-85
2022/09/16 00:41:05;;;;;;;6.40;4.35;;;;;;;20.58;60.14;92768.50;4985509;28;20422;-85
2022/09/16 00:43:53;;;;;;;6.32;4.60;;;;;;;20.57;59.76;92775.28;4974897;28;20060;-86
2022/09/16 00:46:38;;;;;;;7.03;4.30;;;;;;;20.58;60.13;92770.53;5003584;28;20073;-86
2022/09/16 00:49:08;;;;;;;6.82;4.10;;;;;;;20.56;60.29;92773.09;5038179;28;20535;-86
2022/09/16 00:51:33;;;;;;;4.68;4.05;;;;;;;20.59;59.63;92778.22;4976843;28;20042;-86
2022/09/16 00:54:02;;;;;;;6.07;4.50;;;;;;;20.57;59.95;92772.53;4990118;28;20459;-88
2022/09/16 00:56:27;;;;;;;6.28;4.60;;;;;;;20.57;59.61;92775.28;4988334;28;20076;-86
2022/09/16 00:59:07;;;;;;;6.13;4.28;;;;;;;20.58;59.55;92768.50;4978733;28;20041;-87
2022/09/16 01:01:32;;;;;;;5.20;4.20;;;;;;;20.57;59.88;92764.28;4999163;28;20041;-87
2022/09/16 01:04:05;;;;;;;4.53;3.70;;;;;;;20.57;59.51;92769.06;5010378;28;20040;-86
2022/09/16 01:06:31;;;;;;;6.47;4.70;;;;;;;20.56;59.70;92773.09;4983650;28;20701;-86
2022/09/16 01:08:56;;;;;;;6.15;4.30;;;;;;;20.57;59.83;92767.03;5002281;28;20034;-85
2022/09/16 01:11:23;;;;;;;5.85;4.18;;;;;;;20.56;59.88;92765.59;5008933;28;20450;-88
2022/09/16 01:13:48;;;;;;;6.43;4.47;;;;;;;20.54;60.29;92768.16;4974997;28;20046;-85
2022/09/16 01:16:16;;;;;;;5.97;4.28;;;;;;;20.55;60.41;92769.63;4981040;28;20030;-85
2022/09/16 01:18:50;;;;;;;4.75;3.80;;;;;;;20.55;59.50;92769.63;4995609;28;20451;-88
2022/09/16 01:21:23;;;;;;;6.30;4.38;;;;;;;20.56;59.84;92764.84;4975969;28;20041;-85
2022/09/16 01:24:10;;;;;;;5.50;4.30;;;;;;;20.56;59.38;92784.09;4993157;28;20380;-86
2022/09/16 01:26:47;;;;;;;6.65;4.20;;;;;;;20.56;59.77;92779.31;5025390;28;20037;-87
2022/09/16 01:29:38;;;;;;;7.22;4.47;;;;;;;20.56;59.84;92784.09;5007019;28;20044;-85
2022/09/16 01:32:22;;;;;;;;;;;;;;;20.59;59.91;92780.97;4999005;28;20523;-87
2022/09/16 01:35:16;;;;;;;5.55;4.45;;;;;;;20.56;59.64;92775.84;5026483;28;19925;-86
2022/09/16 01:38:08;;;;;;;5.57;4.50;;;;;;;20.56;59.51;92789.56;5020303;28;20053;-85
2022/09/16 01:40:38;;;;;;;4.45;3.45;;;;;;;20.53;59.56;92783.88;5008518;28;20037;-85
2022/09/16 01:43:20;;;;;;;6.40;4.00;;;;;;;20.53;59.84;92781.13;4997245;28;20046;-86
2022/09/16 01:46:12;;;;;;;4.93;4.18;;;;;;;20.53;59.89;92780.41;5006243;28;20411;-86
2022/09/16 01:48:56;;;;;;;6.75;4.18;;;;;;;20.56;59.64;92779.31;5007703;28;20041;-86
2022/09/16 01:51:32;;;;;;;4.68;3.35;;;;;;;20.56;59.57;92781.34;5008253;28;20202;-87
2022/09/16 01:54:02;;;;;;;4.38;3.88;;;;;;;20.52;59.79;92774.16;4958519;28;20407;-88
2022/09/16 01:56:39;;;;;;;5.22;3.70;;;;;;;20.52;59.81;92768.69;5009542;28;20522;-88
2022/09/16 01:59:08;;;;;;;5.10;3.90;;;;;;;20.53;59.49;92772.91;4975873;28;20498;-86
2022/09/16 02:01:48;;;;;;;7.15;4.70;;;;;;;20.51;59.86;92761.72;5008478;28;20148;-85
2022/09/16 02:04:16;;;;;;;6.63;4.50;;;;;;;20.52;59.40;92765.94;4990842;28;20467;-85
2022/09/16 02:06:42;;;;;;;5.10;3.95;;;;;;;20.53;59.24;92767.41;4978561;28;20034;-85
2022/09/16 02:09:12;;;;;;;6.43;4.30;;;;;;;20.54;58.95;92768.16;4978910;28;20083;-86
2022/09/16 02:11:37;;;;;;;4.20;3.80;;;;;;;20.53;59.04;92764.66;4973068;28;20026;-87
2022/09/16 02:14:05;;;;;;;4.93;3.95;;;;;;;20.53;59.78;92764.66;4973392;28;20412;-85
2022/09/16 02:16:41;;;;;;;4.72;3.72;;;;;;;20.52;59.65;92765.19;4974748;28;20048;-86
2022/09/16 02:19:15;;;;;;;5.30;3.60;;;;;;;20.53;59.38;92747.44;4956930;28;20496;-85
2022/09/16 02:21:40;;;;;;;4.70;3.20;;;;;;;20.53;59.51;92745.44;4966017;28;20038;-86
2022/09/16 02:24:09;;;;;;;5.05;3.72;;;;;;;20.51;58.94;92750.75;4986947;28;20037;-88
2022/09/16 02:26:37;;;;;;;6.53;3.83;;;;;;;20.54;59.26;92746.19;4977021;28;20030;-86
2022/09/16 02:29:04;;;;;;;6.75;4.15;;;;;;;20.53;59.04;92755.69;4969052;28;20069;-87
2022/09/16 02:31:31;;;;;;;5.68;3.67;;;;;;;20.52;58.97;92741.22;4976971;28;20072;-86
2022/09/16 02:34:00;;;;;;;4.18;3.63;;;;;;;20.53;59.20;92747.44;4995680;28;20064;-85
2022/09/16 02:36:26;;;;;;;5.55;4.00;;;;;;;20.52;59.32;92737.75;5011665;28;20040;-86
2022/09/16 02:38:55;;;;;;;4.22;3.60;;;;;;;20.53;59.00;92747.44;4992822;28;20034;-86
2022/09/16 02:41:20;;;;;;;5.93;3.72;;;;;;;20.52;59.07;92737.75;4995215;28;20439;-86
2022/09/16 02:43:46;;;;;;;5.05;3.75;;;;;;;20.53;58.91;92739.22;4990976;28;20088;-85
2022/09/16 02:46:20;;;;;;;6.15;3.63;;;;;;;20.53;59.00;92736.47;5011281;28;20042;-86
2022/09/16 02:48:57;;;;;;;5.38;4.47;;;;;;;20.54;58.78;92732.44;4995788;28;20037;-86
2022/09/16 02:51:40;;;;;;;5.03;3.85;;;;;;;20.55;59.07;92735.94;4996745;28;20049;-87
2022/09/16 02:54:20;;;;;;;4.72;3.55;;;;;;;20.53;59.04;92726.22;4991878;28;20038;-86
2022/09/16 02:56:46;;;;;;;4.93;3.63;;;;;;;20.52;59.06;92724.75;4992511;28;20038;-85
2022/09/16 02:59:11;;;;;;;5.47;4.00;;;;;;;20.53;58.89;92722.75;4991551;28;20100;-86
2022/09/16 03:01:42;;;;;;;6.50;4.07;;;;;;;20.52;58.57;92721.28;4992698;28;20049;-85
2022/09/16 03:04:11;;;;;;;5.80;3.40;;;;;;;20.51;58.84;92720.53;4992141;28;20030;-85
2022/09/16 03:06:38;;;;;;;5.75;3.88;;;;;;;20.52;59.02;92726.75;4991860;28;20061;-86
2022/09/16 03:09:05;;;;;;;6.28;3.72;;;;;;;20.52;58.60;92724.00;5010956;28;20499;-89
2022/09/16 03:11:30;;;;;;;4.72;3.35;;;;;;;20.49;59.60;92723.09;4987246;28;20499;-86
2022/09/16 03:14:18;;;;;;;5.35;3.72;;;;;;;20.48;59.11;92726.38;5029507;28;20048;-86
2022/09/16 03:16:47;;;;;;;4.93;3.58;;;;;;;20.51;58.95;92722.53;4997422;28;20037;-86
2022/09/16 03:19:27;;;;;;;4.82;3.22;;;;;;;20.50;58.97;92718.31;5010743;28;20037;-85
2022/09/16 03:22:02;;;;;;;5.25;4.05;;;;;;;20.50;58.94;92719.06;4995156;28;20593;-85
2022/09/16 03:24:35;;;;;;;5.85;3.75;;;;;;;20.51;58.86;92703.31;5015785;28;20034;-85
2022/09/16 03:27:10;;;;;;;5.00;3.60;;;;;;;20.49;58.75;92711.38;4965410;28;20041;-86
2022/09/16 03:29:40;;;;;;;4.30;3.58;;;;;;;20.49;58.85;92705.88;4994561;28;20071;-85
2022/09/16 03:32:17;;;;;;;4.82;3.65;;;;;;;20.50;58.83;92702.59;4994325;28;20037;-86
2022/09/16 03:35:09;;;;;;;4.57;3.38;;;;;;;20.49;58.64;92714.84;5027397;28;20033;-86
2022/09/16 03:37:35;;;;;;;4.93;3.40;;;;;;;20.49;58.79;92717.59;4994770;28;20037;-86
2022/09/16 03:40:08;;;;;;;4.20;3.17;;;;;;;20.48;59.06;92704.41;4982420;28;20060;-85
2022/09/16 03:42:33;;;;;;;6.35;3.40;;;;;;;20.49;58.70;92701.13;5011060;28;20503;-87
2022/09/16 03:44:59;;;;;;;4.97;3.40;;;;;;;20.50;58.55;92702.59;4981358;28;20050;-86
2022/09/16 03:47:24;;;;;;;4.95;3.67;;;;;;;20.49;58.85;92701.13;5004071;28;20038;-86
2022/09/16 03:49:50;;;;;;;4.90;3.30;;;;;;;20.49;58.80;92697.63;5025682;28;20384;-85
2022/09/16 03:52:17;;;;;;;4.72;3.13;;;;;;;20.48;58.69;92701.66;4993840;28;20080;-85
2022/09/16 03:54:43;;;;;;;5.95;3.58;;;;;;;20.50;58.96;92699.84;4995843;28;20044;-86
2022/09/16 03:57:08;;;;;;;4.22;3.55;;;;;;;20.48;58.92;92696.91;4991985;28;20041;-87
2022/09/16 03:59:34;;;;;;;4.07;3.10;;;;;;;20.48;58.85;92687.94;4993767;28;20049;-86
2022/09/16 04:01:59;;;;;;;5.10;2.92;;;;;;;20.47;58.77;92692.69;4977723;28;20034;-86
2022/09/16 04:04:24;;;;;;;3.97;3.00;;;;;;;20.48;59.12;92693.41;4987310;28;20284;-85
2022/09/16 04:06:50;;;;;;;5.70;3.63;;;;;;;20.49;58.73;92686.66;4958854;28;20038;-86
2022/09/16 04:09:15;;;;;;;4.20;3.47;;;;;;;20.47;59.03;92684.44;4994292;28;20088;-85
2022/09/16 04:11:41;;;;;;;3.67;2.72;;;;;;;20.46;58.42;92682.97;4987658;28;20034;-88
2022/09/16 04:14:06;;;;;;;3.65;3.10;;;;;;;20.46;58.94;92677.50;4994667;28;20033;-86
2022/09/16 04:16:32;;;;;;;4.13;3.22;;;;;;;20.47;58.58;92670.72;4974801;28;20111;-86
2022/09/16 04:18:57;;;;;;;3.30;3.00;;;;;;;20.46;59.07;92685.00;5017472;28;20038;-86
2022/09/16 04:21:23;;;;;;;5.68;3.08;;;;;;;20.48;58.57;92680.44;4989450;28;20041;-85
2022/09/16 04:23:48;;;;;;;4.75;3.20;;;;;;;20.48;58.27;92679.69;4986762;28;20046;-85
2022/09/16 04:26:14;;;;;;;4.68;3.65;;;;;;;20.46;58.94;92677.50;5010238;28;20362;-86
2022/09/16 04:28:39;;;;;;;4.30;3.00;;;;;;;20.53;58.91;92676.06;4973920;28;20065;-85
2022/09/16 04:31:06;;;;;;;6.07;3.08;;;;;;;20.49;58.96;92681.16;5002800;28;20049;-86
2022/09/16 04:33:33;;;;;;;6.20;3.22;;;;;;;20.48;58.93;92677.69;5026439;28;20037;-85
2022/09/16 04:36:08;;;;;;;5.57;3.38;;;;;;;20.50;59.05;92677.16;5008312;28;20041;-85
2022/09/16 04:38:34;;;;;;;21.05;7.90;;;;;;;20.50;58.90;92663.41;4992583;28;20033;-84
2022/09/16 04:41:06;;;;;;;21.95;14.70;;;;;;;20.51;58.95;92681.34;4977786;28;20050;-85
2022/09/16 04:43:31;;;;;;;38.42;29.83;;;;;;;20.55;59.30;92689.97;4968417;28;20057;-85
2022/09/16 04:45:57;;;;;;;13.43;8.23;;;;;;;20.52;59.00;92682.81;4969862;28;20033;-91
2022/09/16 04:48:24;;;;;;;6.50;4.57;;;;;;;20.55;59.05;92683.75;4993251;28;20041;-89
2022/09/16 04:50:50;;;;;;;6.10;4.43;;;;;;;20.53;59.04;92696.00;4994612;28;20050;-87
2022/09/16 04:53:16;;;;;;;10.90;7.15;;;;;;;20.55;58.80;92686.50;5009964;28;20033;-86
2022/09/16 04:55:42;;;;;;;14.43;9.43;;;;;;;20.55;58.79;92700.22;4994455;28;20044;-88
2022/09/16 04:58:07;;;;;;;13.93;5.47;;;;;;;20.52;59.00;92702.03;5009842;28;20414;-87
2022/09/16 05:00:33;;;;;;;7.93;5.10;;;;;;;20.48;58.65;92696.16;5015981;28;20049;-87
2022/09/16 05:02:58;;;;;;;12.45;7.85;;;;;;;20.41;54.72;92696.84;4988066;28;20097;-88
2022/09/16 05:05:24;;;;;;;12.30;8.43;;;;;;;20.31;52.25;92704.09;5006843;28;20054;-88
2022/09/16 05:07:51;;;;;;;10.65;7.03;;;;;;;20.23;50.52;92697.81;5005962;28;20088;-88
2022/09/16 05:10:17;;;;;;;12.70;7.55;;;;;;;20.18;50.24;92711.16;4987961;28;20148;-88
2022/09/16 05:12:42;;;;;;;11.10;7.15;;;;;;;20.15;49.93;92706.72;4977958;28;20037;-90
2022/09/16 05:15:08;;;;;;;13.75;8.02;;;;;;;20.17;49.87;92695.22;4977388;28;20453;-90
2022/09/16 05:17:33;;;;;;;25.88;7.43;;;;;;;20.14;49.56;92699.78;4987799;28;20026;-87
2022/09/16 05:19:59;;;;;;;19.27;9.30;;;;;;;20.12;49.72;92691.38;4917542;28;20039;-83
2022/09/16 05:22:24;;;;;;;31.95;9.18;;;;;;;20.07;49.43;92694.25;4933559;28;20038;-88
2022/09/16 05:24:50;;;;;;;23.40;9.43;;;;;;;20.08;49.58;92692.97;4949189;28;20042;-87
2022/09/16 05:27:16;;;;;;;32.70;9.98;;;;;;;20.07;49.59;92691.50;4933609;28;20050;-87
2022/09/16 05:29:41;;;;;;;27.05;9.18;;;;;;;20.08;49.92;92687.50;4917252;28;20030;-87
2022/09/16 05:32:06;;;;;;;35.05;13.23;;;;;;;20.13;50.42;92684.59;4933244;28;20508;-86
2022/09/16 05:34:34;;;;;;;40.95;15.57;;;;;;;20.16;50.65;92677.28;4917679;28;20426;-88
2022/09/16 05:36:59;;;;;;;54.65;21.55;;;;;;;20.20;51.24;92686.66;4933806;28;20051;-85
2022/09/16 05:39:25;;;;;;;53.42;20.42;;;;;;;20.19;51.63;92674.19;4948225;28;20041;-88
2022/09/16 05:41:55;;;;;;;50.67;22.25;;;;;;;20.23;52.19;92670.38;4926118;28;20039;-88
2022/09/16 05:44:21;;;;;;;49.97;21.02;;;;;;;20.25;52.85;92670.56;4952295;28;20594;-87
2022/09/16 05:46:47;;;;;;;42.03;23.00;;;;;;;20.27;52.87;92671.50;4926897;29;20039;-88
2022/09/16 05:49:12;;;;;;;55.45;28.20;;;;;;;20.28;53.39;92675.72;4962179;28;20042;-88
2022/09/16 05:51:38;;;;;;;57.80;28.42;;;;;;;20.30;53.38;92688.91;4995143;28;20037;-87
2022/09/16 05:54:03;;;;;;;57.50;28.80;;;;;;;20.30;53.62;92686.91;4976657;28;20037;-88
2022/09/16 05:56:30;;;;;;;59.67;32.63;;;;;;;20.32;53.65;92678.88;4976634;28;20033;-88
2022/09/16 05:58:56;;;;;;;59.65;33.25;;;;;;;20.35;53.79;92674.31;4977247;28;20034;-88
2022/09/16 06:01:24;;;;;;;76.43;37.03;;;;;;;20.34;54.03;92683.81;4985968;28;20029;-87
2022/09/16 06:03:49;;;;;;;77.75;39.22;;;;;;;20.38;53.91;92689.69;5009383;28;20033;-85
2022/09/16 06:06:24;;;;;;;77.05;37.72;;;;;;;20.37;54.32;92688.97;4995611;28;20498;-85
2022/09/16 06:08:49;;;;;;;75.70;39.72;;;;;;;20.42;54.35;92692.84;4998442;28;20578;-87
2022/09/16 06:11:15;;;;;;;76.95;37.42;;;;;;;20.39;54.43;92686.41;4976420;28;20044;-85
2022/09/16 06:13:40;;;;;;;86.07;40.22;;;;;;;20.43;54.21;92686.81;4985019;28;20133;-88
2022/09/16 06:16:06;;;;;;;81.85;38.33;;;;;;;20.45;54.45;92687.00;4980351;28;20513;-86
2022/09/16 06:18:32;;;;;;;86.97;39.60;;;;;;;20.46;54.33;92682.25;4980995;28;20042;-87
2022/09/16 06:21:02;;;;;;;76.97;37.70;;;;;;;20.50;54.06;92679.88;4978689;28;20118;-87
2022/09/16 06:23:27;;;;;;;70.97;36.08;;;;;;;20.49;54.12;92681.91;4966723;28;20034;-89
2022/09/16 06:26:03;;;;;;;65.93;33.83;;;;;;;20.48;54.38;92683.16;4974458;28;20061;-87
2022/09/16 06:28:28;;;;;;;63.95;33.70;;;;;;;20.50;54.15;92677.16;4994186;28;20033;-87
2022/09/16 06:31:05;;;;;;;73.13;35.47;;;;;;;20.45;54.34;92673.28;4996236;28;20036;-86
2022/09/16 06:33:30;;;;;;;56.40;30.02;;;;;;;20.40;53.88;92671.41;4988854;28;20052;-89
2022/09/16 06:35:56;;;;;;;43.33;21.10;;;;;;;20.36;52.78;92673.00;4980115;28;20045;-87
2022/09/16 06:38:22;;;;;;;36.97;16.98;;;;;;;20.29;52.43;92674.44;4961368;28;20038;-86
2022/09/16 06:40:49;;;;;;;27.55;15.20;;;;;;;20.24;51.75;92677.34;4979202;28;20065;-88
2022/09/16 06:43:14;;;;;;;27.27;14.10;;;;;;;20.20;52.29;92674.94;4976662;28;20049;-90
2022/09/16 06:45:40;;;;;;;29.48;13.98;;;;;;;20.29;52.04;92682.69;4997366;28;20479;-87
2022/09/16 06:48:05;;;;;;;25.65;13.45;;;;;;;20.25;51.94;92671.31;4966948;28;20041;-85
2022/09/16 06:50:31;;;;;;;31.13;14.63;;;;;;;20.21;52.13;92676.41;4996382;28;20037;-89
2022/09/16 06:52:56;;;;;;;45.15;17.95;;;;;;;20.29;52.73;92666.22;4980241;28;20668;-86
2022/09/16 06:55:22;;;;;;;38.22;17.65;;;;;;;20.27;52.49;92668.03;4981571;28;20475;-85
2022/09/16 06:57:47;;;;;;;42.60;16.20;;;;;;;20.29;52.49;92665.47;4960721;28;20038;-86
2022/09/16 07:00:13;;;;;;;32.45;17.45;;;;;;;20.32;52.86;92667.16;4980833;28;20095;-87
2022/09/16 07:02:38;;;;;;;38.65;17.52;;;;;;;20.31;52.96;92669.16;4976966;28;20042;-85
2022/09/16 07:05:04;;;;;;;42.75;18.20;;;;;;;20.31;53.12;92657.44;4978494;28;20049;-88
2022/09/16 07:07:35;;;;;;;47.58;19.48;;;;;;;20.31;53.24;92671.16;4980615;28;20095;-87
2022/09/16 07:10:00;;;;;;;40.35;19.08;;;;;;;20.33;53.38;92672.09;5013191;28;20044;-89
2022/09/16 07:12:27;;;;;;;40.95;19.00;;;;;;;20.35;53.57;92666.78;4977245;28;20030;-89
2022/09/16 07:14:52;;;;;;;52.22;21.90;;;;;;;20.34;53.63;92670.81;4979571;28;20033;-85
2022/09/16 07:17:18;;;;;;;34.15;18.73;;;;;;;20.35;53.87;92668.81;4982639;28;20076;-85
2022/09/16 07:19:43;;;;;;;33.90;19.27;;;;;;;20.33;54.02;92674.84;4995972;28;20038;-87
2022/09/16 07:22:10;;;;;;;30.65;15.40;;;;;;;20.31;53.23;92671.91;4993645;28;20128;-86
2022/09/16 07:24:36;;;;;;;24.05;12.98;;;;;;;20.28;53.20;92678.47;4969763;28;20030;-89
2022/09/16 07:27:02;;;;;;;21.95;12.07;;;;;;;20.17;52.93;92676.75;5012486;28;20037;-86
2022/09/16 07:29:27;;;;;;;20.60;12.65;;;;;;;20.20;52.51;92685.91;4992012;28;20046;-87
2022/09/16 07:31:53;;;;;;;20.35;12.13;;;;;;;20.16;52.47;92678.03;5007618;28;20042;-86
2022/09/16 07:34:18;;;;;;;30.60;14.75;;;;;;;20.14;52.59;92690.81;4995850;28;20048;-88
2022/09/16 07:36:47;;;;;;;21.65;11.15;;;;;;;20.09;52.64;92691.72;4996381;28;20053;-90
2022/09/16 07:39:13;;;;;;;16.60;10.65;;;;;;;20.11;52.60;92691.91;4979564;28;20038;-89
2022/09/16 07:41:40;;;;;;;16.42;11.20;;;;;;;20.04;52.79;92689.84;5012129;28;20049;-88
2022/09/16 07:44:08;;;;;;;18.42;11.07;;;;;;;20.07;52.66;92694.25;4980001;28;20128;-90
2022/09/16 07:46:34;;;;;;;13.98;11.02;;;;;;;20.02;52.71;92695.88;4997283;28;20088;-90
2022/09/16 07:49:01;;;;;;;14.18;10.98;;;;;;;20.01;52.86;92694.41;4984392;28;20033;-85
2022/09/16 07:51:27;;;;;;;14.73;10.27;;;;;;;19.97;52.84;92691.25;5007392;28;20037;-88
2022/09/16 07:53:53;;;;;;;16.58;10.68;;;;;;;19.96;52.95;92691.78;4964403;28;20146;-86
2022/09/16 07:56:20;;;;;;;17.38;11.23;;;;;;;19.97;53.01;92698.75;4977790;28;20045;-85
2022/09/16 07:58:46;;;;;;;16.35;11.10;;;;;;;19.89;53.04;92695.22;4995659;28;20376;-87
2022/09/16 08:01:13;;;;;;;17.15;11.13;;;;;;;19.90;53.14;92691.94;4966709;28;20041;-86
2022/09/16 08:03:39;;;;;;;27.05;12.00;;;;;;;19.90;52.96;92699.44;4975549;28;20030;-86
2022/09/16 08:06:13;;;;;;;27.90;11.13;;;;;;;19.90;53.27;92707.69;4989585;28;20043;-86
2022/09/16 08:08:38;;;;;;;24.25;10.73;;;;;;;19.90;53.20;92702.94;4992383;28;20052;-86
2022/09/16 08:11:04;;;;;;;20.88;9.45;;;;;;;19.86;53.34;92702.53;4977861;28;20060;-85
2022/09/16 08:13:30;;;;;;;18.73;9.35;;;;;;;19.86;53.38;92702.53;4997467;28;20029;-87
2022/09/16 08:16:00;;;;;;;21.73;9.15;;;;;;;19.88;53.34;92689.00;5010847;28;20121;-84
2022/09/16 08:18:25;;;;;;;21.30;9.55;;;;;;;19.83;53.41;92704.34;4972998;28;20430;-86
2022/09/16 08:20:51;;;;;;;19.48;9.68;;;;;;;19.82;53.36;92697.38;4994497;28;20515;-85
2022/09/16 08:23:17;;;;;;;22.90;10.93;;;;;;;19.81;53.54;92704.13;4991936;28;20593;-85
2022/09/16 08:25:42;;;;;;;17.10;9.30;;;;;;;19.80;53.17;92699.91;5009986;28;20037;-86
2022/09/16 08:28:14;;;;;;;18.30;9.60;;;;;;;19.83;53.24;92704.34;4974877;28;20400;-86
2022/09/16 08:30:40;;;;;;;19.55;11.25;;;;;;;19.84;53.43;92686.59;4978626;28;20033;-85
2022/09/16 08:33:05;;;;;;;19.08;11.60;;;;;;;19.79;53.65;92701.19;4990689;28;20033;-85
2022/09/16 08:35:31;;;;;;;22.95;12.65;;;;;;;19.82;53.64;92710.34;4972086;28;20039;-85
2022/09/16 08:37:57;;;;;;;33.25;13.07;;;;;;;19.80;53.84;92712.91;4991054;28;20046;-85
2022/09/16 08:40:23;;;;;;;13.18;10.50;;;;;;;19.76;53.71;92715.97;4991024;28;20069;-85
2022/09/16 08:43:00;;;;;;;16.85;11.20;;;;;;;19.75;53.73;92719.97;4979999;28;20403;-85
2022/09/16 08:45:31;;;;;;;15.00;9.50;;;;;;;19.77;53.73;92711.22;4994758;28;20543;-85
2022/09/16 08:48:19;;;;;;;15.93;9.98;;;;;;;19.77;53.62;92703.72;5007689;28;20034;-84
2022/09/16 08:50:45;;;;;;;14.60;10.70;;;;;;;19.73;53.50;92706.06;4991164;28;20121;-86
2022/09/16 08:53:40;;;;;;;24.35;11.25;;;;;;;19.76;53.30;92717.97;4975263;28;20041;-85
2022/09/16 08:56:09;;;;;;;14.05;10.02;;;;;;;19.75;53.38;92711.00;4983789;28;20036;-87
2022/09/16 08:58:38;;;;;;;13.70;10.35;;;;;;;19.76;53.63;92707.75;4991444;28;20037;-85
2022/09/16 09:01:14;;;;;;;18.42;11.05;;;;;;;19.77;53.70;92705.72;4973806;28;20065;-86
2022/09/16 09:03:40;;;;;;;16.40;10.85;;;;;;;19.74;53.49;92696.56;4989701;28;20030;-86
2022/09/16 09:06:17;;;;;;;19.00;11.30;;;;;;;19.74;53.56;92710.28;4975045;28;20048;-86
2022/09/16 09:08:49;;;;;;;13.25;10.63;;;;;;;19.74;53.96;92707.53;4975628;28;20037;-88
2022/09/16 09:11:34;;;;;;;22.33;10.65;;;;;;;19.76;53.89;92707.75;5005760;28;20083;-86
2022/09/16 09:14:26;;;;;;;21.98;12.00;;;;;;;19.76;54.13;92712.50;4981924;28;20492;-86
2022/09/16 09:17:12;;;;;;;21.00;12.65;;;;;;;19.71;54.10;92713.34;5006985;28;20041;-87
2022/09/16 09:20:00;;;;;;;14.80;11.32;;;;;;;19.73;54.13;92710.81;4991309;28;20506;-88
2022/09/16 09:22:56;;;;;;;13.88;10.82;;;;;;;19.73;54.01;92711.56;5004487;28;20061;-87
2022/09/16 09:25:33;;;;;;;24.08;13.40;;;;;;;19.70;53.90;92712.63;5006568;28;20042;-85
2022/09/16 09:28:05;;;;;;;26.45;13.02;;;;;;;19.72;53.90;92710.06;4970763;28;20480;-85
2022/09/16 09:30:31;;;;;;;26.75;13.45;;;;;;;19.69;53.33;92713.19;4985179;28;20119;-88
2022/09/16 09:33:09;;;;;;;26.27;14.35;;;;;;;19.71;53.63;92716.84;4974255;28;20050;-85
2022/09/16 09:35:58;;;;;;;106.35;19.25;;;;;;;19.67;53.46;92710.25;4989805;28;20521;-86
2022/09/16 09:38:56;;;;;;;166.77;23.88;;;;;;;19.74;53.19;92707.53;4991958;28;20119;-87
2022/09/16 09:41:36;;;;;;;56.58;16.35;;;;;;;19.71;52.93;92699.66;4980059;28;20062;-85
2022/09/16 09:44:20;;;;;;;60.00;15.48;;;;;;;19.68;52.94;92695.25;4990591;28;20038;-85
2022/09/16 09:46:47;;;;;;;118.45;19.38;;;;;;;19.75;52.58;92692.56;4989486;28;20041;-86
2022/09/16 09:49:16;;;;;;;39.08;13.48;;;;;;;19.69;52.75;92691.97;4972739;28;20034;-86
2022/09/16 09:51:54;;;;;;;40.80;12.60;;;;;;;19.72;52.63;92692.88;4990695;28;20495;-86
2022/09/16 09:54:22;;;;;;;42.20;11.82;;;;;;;19.69;52.88;92685.75;4975817;28;20511;-85
2022/09/16 09:56:47;;;;;;;32.20;12.20;;;;;;;19.75;52.65;92689.06;5019249;28;20111;-86
2022/09/16 09:59:37;;;;;;;19.58;9.75;;;;;;;19.71;52.62;92689.41;5006768;28;20038;-85
2022/09/16 10:02:06;;;;;;;15.48;9.25;;;;;;;19.66;52.92;92684.09;4980206;28;20089;-88
2022/09/16 10:04:36;;;;;;;21.63;10.88;;;;;;;19.64;52.59;92690.09;4953328;28;20046;-86
2022/09/16 10:07:01;;;;;;;27.38;9.57;;;;;;;19.62;52.66;92681.69;4970969;28;20088;-85
2022/09/16 10:09:27;;;;;;;24.30;10.63;;;;;;;19.65;52.51;92680.63;4971944;28;20038;-86
2022/09/16 10:11:56;;;;;;;39.13;10.43;;;;;;;19.67;52.27;92672.59;4984450;28;20030;-84
2022/09/16 10:14:29;;;;;;;31.10;11.77;;;;;;;19.63;52.27;92677.66;4991277;28;20146;-85
2022/09/16 10:16:55;;;;;;;25.40;10.07;;;;;;;19.64;52.20;92681.16;4979922;28;20133;-84
2022/09/16 10:19:24;;;;;;;36.85;13.15;;;;;;;19.63;52.39;92674.19;4988234;28;20038;-86
2022/09/16 10:21:53;;;;;;;25.48;10.98;;;;;;;19.65;52.24;92666.16;5006652;28;20044;-88
2022/09/16 10:24:31;;;;;;;18.42;9.18;;;;;;;19.66;52.43;92670.38;5004771;28;20127;-88
2022/09/16 10:26:57;;;;;;;16.65;9.20;;;;;;;19.69;52.16;92672.78;5005824;28;20034;-85
2022/09/16 10:29:22;;;;;;;25.45;8.93;;;;;;;19.61;52.03;92676.72;4972703;28;20041;-87
2022/09/16 10:31:48;;;;;;;14.82;7.93;;;;;;;19.66;51.92;92670.38;5005474;28;20503;-87
2022/09/16 10:34:16;;;;;;;15.93;7.75;;;;;;;19.69;51.93;92672.78;4988288;28;20504;-85
2022/09/16 10:36:41;;;;;;;13.02;7.47;;;;;;;19.69;51.75;92674.78;5005338;28;20088;-85
2022/09/16 10:39:22;;;;;;;11.75;7.93;;;;;;;19.69;52.00;92674.78;4984085;28;20038;-84
2022/09/16 10:41:48;;;;;;;11.80;8.10;;;;;;;19.65;52.30;92674.38;4953969;28;20053;-84
2022/09/16 10:44:21;;;;;;;15.23;8.75;;;;;;;19.66;52.33;92667.63;4967145;28;20034;-87
2022/09/16 10:47:06;;;;;;;16.38;7.88;;;;;;;19.71;52.31;92650.28;5003479;28;20113;-86
2022/09/16 10:49:48;;;;;;;14.50;8.30;;;;;;;19.68;52.75;92654.13;4991081;28;20482;-87
2022/09/16 10:52:18;;;;;;;11.48;7.57;;;;;;;19.67;52.46;92655.41;4992725;28;20506;-86
2022/09/16 10:54:43;;;;;;;18.10;8.13;;;;;;;19.66;52.30;92638.22;4993573;28;20038;-84
2022/09/16 10:57:31;;;;;;;20.33;7.90;;;;;;;19.65;52.49;92634.00;4992378;28;20046;-86
2022/09/16 11:00:16;;;;;;;16.30;6.72;;;;;;;19.65;52.36;92644.97;4994060;28;20431;-85
2022/09/16 11:03:15;;;;;;;10.60;7.00;;;;;;;19.72;51.87;92635.31;4992104;28;20099;-85
2022/09/16 11:05:51;;;;;;;11.55;6.38;;;;;;;19.68;51.80;92654.13;5009267;28;20034;-86
2022/09/16 11:08:22;;;;;;;12.05;6.53;;;;;;;19.70;51.89;92659.81;4991669;28;20094;-85
2022/09/16 11:11:12;;;;;;;13.90;6.75;;;;;;;19.70;51.71;92659.81;5008809;28;20042;-86
2022/09/16 11:13:46;;;;;;;9.98;5.93;;;;;;;19.73;51.38;92655.97;4999102;28;20488;-84
2022/09/16 11:16:12;;;;;;;11.25;5.97;;;;;;;19.71;51.29;92658.50;4992094;28;20133;-87
2022/09/16 11:18:49;;;;;;;12.02;6.28;;;;;;;19.69;51.39;92652.84;5007488;28;20142;-85
2022/09/16 11:21:35;;;;;;;7.68;5.28;;;;;;;19.72;50.73;92666.19;5008367;28;20040;-84
2022/09/16 11:24:32;;;;;;;10.57;5.90;;;;;;;19.69;50.98;92655.59;4992123;28;20403;-85
2022/09/16 11:27:16;;;;;;;17.17;6.03;;;;;;;19.70;50.62;92660.53;4990922;28;20500;-84
2022/09/16 11:30:03;;;;;;;15.90;5.72;;;;;;;19.70;50.29;92652.28;4990955;28;20575;-84
2022/09/16 11:32:50;;;;;;;25.33;9.70;;;;;;;19.71;50.30;92661.25;5008600;28;20069;-85
2022/09/16 11:35:16;;;;;;;18.13;9.43;;;;;;;19.66;50.31;92654.66;4989622;28;20038;-85
2022/09/16 11:37:56;;;;;;;19.58;8.63;;;;;;;19.69;49.96;92652.84;4994176;28;20109;-84
2022/09/16 11:40:31;;;;;;;14.60;6.28;;;;;;;19.68;49.97;92654.13;5007555;28;20037;-86
2022/09/16 11:43:08;;;;;;;23.58;6.25;;;;;;;19.63;50.07;92655.72;4988890;28;20042;-86